Johnson Valley, California
Current Conditions -  °F | °C
As of 2:56 AM on Sunday 21 Dec 2014 (Local Time) from KNXP Reporting Station
Clear Clear  
Wind Chill: 40°   Ceiling: Unl
Heat Index: 45°   Visibility: NA
Dew Point: 40°   Wind: 9mph
Humidity: 82%   Direction: 250°WSW
Pressure: 30.23"   Gusts: NA
Location:  34.4465°N, 116.513°W
Report Text: KNXP 211056Z AUTO 25008KT CLR 07/04 A3023 RMK AO2 SLP221 T00720044 $
Loading
Personal Weather Stations






























Interactive Weather Map New forecast layout! Learn more

10-Day Weather Forecast

Advertisements
Track Severe Weather on mobile